createdAt,value
2023-02-15T00:03:20.496Z,191.95
2023-02-15T00:07:22.792Z,249.63
2023-02-15T00:11:40.652Z,247.93
2023-02-15T00:15:42.837Z,285.30
2023-02-15T00:19:44.887Z,385.35
2023-02-15T00:23:46.894Z,206.07
2023-02-15T00:27:48.897Z,166.75
2023-02-15T00:31:51.560Z,169.48
2023-02-15T00:35:58.190Z,304.60
2023-02-15T00:40:00.225Z,143.95
2023-02-15T00:44:02.590Z,238.95
2023-02-15T00:48:05.322Z,232.93
2023-02-15T00:52:07.382Z,214.30
2023-02-15T00:56:11.229Z,376.33
2023-02-15T01:00:13.963Z,376.83
2023-02-15T01:04:16.011Z,443.23
2023-02-15T01:08:18.063Z,421.13
2023-02-15T01:12:20.081Z,256.55
2023-02-15T01:16:24.275Z,293.02
2023-02-15T01:20:29.142Z,347.80
2023-02-15T01:24:31.188Z,186.57
2023-02-15T01:28:33.548Z,227.65
2023-02-15T01:32:36.806Z,216.48
2023-02-15T01:36:38.834Z,362.77
2023-02-15T01:40:41.171Z,269.63
2023-02-15T01:45:00.428Z,199.90
2023-02-15T01:49:16.503Z,216.95
2023-02-15T01:53:41.999Z,249.77
2023-02-15T01:57:46.268Z,244.05
2023-02-15T02:01:51.221Z,220.07
2023-02-15T02:05:53.391Z,276.15
2023-02-15T02:09:55.597Z,314.48
2023-02-15T02:13:59.431Z,122.07
2023-02-15T02:18:18.585Z,141.82
2023-02-15T02:22:38.895Z,254.98
2023-02-15T02:27:01.680Z,350.52
2023-02-15T02:31:15.745Z,355.35
2023-02-15T02:35:28.029Z,243.18
2023-02-15T02:39:40.173Z,253.70
2023-02-15T02:43:51.574Z,295.63
2023-02-15T02:48:11.362Z,143.43
2023-02-15T02:52:52.356Z,237.45
2023-02-15T02:56:57.391Z,268.48
2023-02-15T03:01:15.113Z,153.23
2023-02-15T03:09:42.408Z,250.85
2023-02-15T03:13:49.033Z,210.88
2023-02-15T03:17:58.505Z,116.28
2023-02-15T03:22:20.326Z,230.38
2023-02-15T03:26:24.786Z,240.07
2023-02-15T03:30:30.760Z,211.55
2023-02-15T03:34:33.185Z,267.42
2023-02-15T03:38:42.099Z,249.50
2023-02-15T03:42:47.034Z,249.27
2023-02-15T03:46:59.340Z,175.30
2023-02-15T03:51:24.985Z,194.50
2023-02-15T03:55:28.322Z,103.05
2023-02-15T03:59:49.070Z,132.05
2023-02-15T04:03:58.397Z,184.65
2023-02-15T04:08:00.422Z,73.63
2023-02-15T04:12:02.515Z,147.93
2023-02-15T04:16:06.070Z,178.63
2023-02-15T04:20:28.548Z,193.93
2023-02-15T04:24:49.151Z,267.77
2023-02-15T04:28:51.138Z,176.05
2023-02-15T04:32:54.866Z,168.90
2023-02-15T04:36:56.878Z,262.85
2023-02-15T04:40:58.961Z,208.77
2023-02-15T04:45:00.987Z,142.40
2023-02-15T04:49:03.743Z,113.93
2023-02-15T04:53:05.805Z,128.60
2023-02-15T04:57:07.933Z,220.27
2023-02-15T05:01:11.390Z,168.05
2023-02-15T05:05:16.002Z,211.60
2023-02-15T05:09:18.055Z,160.48
2023-02-15T05:13:20.146Z,138.93
2023-02-15T05:17:22.203Z,103.75
2023-02-15T05:21:24.446Z,104.63
2023-02-15T05:26:05.067Z,199.82
2023-02-15T05:30:12.464Z,259.55
2023-02-15T05:34:14.625Z,59.65
2023-02-15T05:38:16.726Z,142.27
2023-02-15T05:42:18.721Z,239.35
2023-02-15T05:46:20.751Z,156.93
2023-02-15T05:50:22.780Z,148.88
2023-02-15T05:54:25.323Z,123.28
2023-02-15T05:58:28.114Z,236.55
2023-02-15T06:02:30.186Z,177.70
2023-02-15T06:06:32.270Z,293.48
2023-02-15T06:10:34.377Z,126.72
2023-02-15T06:14:36.381Z,140.20
2023-02-15T06:18:38.432Z,146.60
2023-02-15T06:22:40.476Z,136.52
2023-02-15T06:26:42.546Z,123.72
2023-02-15T06:30:44.597Z,195.93
2023-02-15T06:34:48.503Z,217.00
2023-02-15T06:38:50.877Z,103.40
2023-02-15T06:42:52.911Z,161.55
2023-02-15T06:46:54.931Z,140.23
2023-02-15T06:50:56.977Z,112.78
2023-02-15T06:54:59.014Z,142.13
2023-02-15T06:59:01.160Z,205.63
2023-02-15T07:03:03.841Z,131.93
2023-02-15T07:07:10.053Z,99.32
2023-02-15T07:11:30.738Z,247.93
2023-02-15T07:15:32.783Z,188.95
2023-02-15T07:19:34.809Z,155.73
2023-02-15T07:23:38.375Z,102.55
2023-02-15T07:27:40.948Z,79.63
2023-02-15T07:31:46.108Z,157.48
2023-02-15T07:35:49.728Z,99.45
2023-02-15T07:39:51.786Z,103.40
2023-02-15T07:43:53.935Z,139.88
2023-02-15T07:47:55.971Z,83.28
2023-02-15T07:51:58.140Z,95.93
2023-02-15T07:56:01.999Z,93.75
2023-02-15T08:00:04.903Z,93.05
2023-02-15T08:04:14.609Z,115.97
2023-02-15T08:08:31.561Z,115.75
2023-02-15T08:12:33.563Z,104.22
2023-02-15T08:16:39.712Z,112.70
2023-02-15T08:20:41.850Z,68.70
2023-02-15T08:24:43.841Z,147.45
2023-02-15T08:28:47.301Z,75.57
2023-02-15T08:32:49.321Z,146.70
2023-02-15T08:36:51.923Z,94.47
2023-02-15T08:40:53.926Z,72.22
2023-02-15T08:44:55.975Z,90.85
2023-02-15T08:48:58.634Z,115.25
2023-02-15T08:53:00.641Z,133.85
2023-02-15T08:57:02.673Z,71.20
2023-02-15T09:01:19.005Z,41.80
2023-02-15T09:05:21.119Z,37.60
2023-02-15T09:09:23.136Z,88.20
2023-02-15T09:13:25.167Z,86.88
2023-02-15T09:17:27.193Z,116.93
2023-02-15T09:21:29.524Z,76.65
2023-02-15T09:25:31.562Z,61.90
2023-02-15T09:29:33.559Z,60.95
2023-02-15T09:33:37.111Z,64.35
2023-02-15T09:37:39.139Z,37.72
2023-02-15T09:42:27.480Z,34.90
2023-02-15T09:51:08.634Z,27.52
2023-02-15T09:55:35.793Z,29.38
2023-02-15T10:00:05.118Z,30.65
2023-02-15T10:04:35.628Z,28.67
2023-02-15T10:08:40.353Z,43.00
2023-02-15T10:13:10.660Z,32.03
2023-02-15T10:17:23.151Z,30.85
2023-02-15T10:21:41.343Z,38.92
2023-02-15T10:25:52.056Z,37.85
2023-02-15T10:30:09.161Z,17.38
2023-02-15T10:34:37.895Z,29.90
2023-02-15T10:38:53.923Z,50.03
2023-02-15T10:43:10.127Z,19.83
2023-02-15T10:47:18.073Z,17.52
2023-02-15T10:51:34.420Z,20.52
2023-02-15T10:55:39.342Z,19.02
2023-02-15T11:00:02.036Z,15.57
2023-02-15T11:04:26.922Z,14.52
2023-02-15T11:08:32.493Z,16.58
2023-02-15T11:12:34.770Z,14.43
2023-02-15T11:16:45.273Z,14.73
2023-02-15T11:21:10.624Z,14.20
2023-02-15T11:25:20.274Z,14.30
2023-02-15T11:29:39.538Z,13.90
2023-02-15T11:33:46.981Z,13.23
2023-02-15T11:38:15.945Z,16.10
2023-02-15T11:42:23.226Z,15.10
2023-02-15T11:46:25.534Z,16.42
2023-02-15T11:50:31.689Z,15.13
2023-02-15T11:54:36.666Z,16.65
2023-02-15T11:59:13.428Z,14.68
2023-02-15T12:03:23.608Z,14.75
2023-02-15T12:07:28.355Z,14.77
2023-02-15T12:11:36.136Z,13.98
2023-02-15T12:15:39.073Z,17.67
2023-02-15T12:19:43.947Z,14.70
2023-02-15T12:23:52.670Z,20.17
2023-02-15T12:27:55.234Z,20.98
2023-02-15T12:31:58.286Z,21.65
2023-02-15T12:36:13.318Z,18.30
2023-02-15T12:40:30.940Z,21.05
2023-02-15T12:44:35.670Z,20.20
2023-02-15T12:48:40.812Z,19.83
2023-02-15T12:52:44.936Z,27.58
2023-02-15T12:56:46.946Z,23.13
2023-02-15T13:00:49.112Z,24.27
2023-02-15T13:04:51.736Z,28.63
2023-02-15T13:08:56.846Z,31.42
2023-02-15T13:12:59.576Z,20.02
2023-02-15T13:17:06.157Z,23.35
2023-02-15T13:21:25.969Z,25.95
2023-02-15T13:25:35.355Z,26.08
2023-02-15T13:29:39.464Z,24.98
2023-02-15T13:33:46.651Z,27.17
2023-02-15T13:42:09.294Z,24.73
2023-02-15T13:46:23.662Z,29.42
2023-02-15T13:50:50.618Z,26.17
2023-02-15T13:55:30.393Z,26.23
2023-02-15T13:59:45.742Z,24.60
2023-02-15T14:04:08.049Z,30.35
2023-02-15T14:08:15.682Z,26.67
2023-02-15T14:12:26.144Z,33.25
2023-02-15T14:16:41.254Z,26.70
2023-02-15T14:21:18.768Z,25.88
2023-02-15T14:25:44.890Z,24.45
2023-02-15T14:29:58.760Z,27.20
2023-02-15T14:34:00.812Z,25.73
2023-02-15T14:38:22.527Z,25.38
2023-02-15T14:42:43.270Z,30.35
2023-02-15T14:47:05.583Z,26.38
2023-02-15T14:51:07.636Z,31.38
2023-02-15T14:55:09.635Z,27.95
2023-02-15T14:59:20.565Z,29.98
2023-02-15T15:03:26.121Z,31.15
2023-02-15T15:07:50.750Z,27.40
2023-02-15T15:11:55.169Z,35.75
2023-02-15T15:16:18.108Z,32.63
2023-02-15T15:20:42.804Z,30.90
2023-02-15T15:24:44.789Z,30.02
2023-02-15T15:28:49.838Z,26.75
2023-02-15T15:32:54.890Z,35.30
2023-02-15T15:37:19.639Z,26.80
2023-02-15T15:42:09.696Z,27.55
2023-02-15T15:46:11.704Z,30.08
2023-02-15T15:50:17.922Z,31.90
2023-02-15T15:54:26.923Z,30.87
2023-02-15T15:58:31.488Z,30.00
2023-02-15T16:02:33.690Z,31.95
2023-02-15T16:06:38.859Z,28.58
2023-02-15T16:10:41.385Z,34.45
2023-02-15T16:14:45.241Z,31.02
2023-02-15T16:18:48.485Z,30.73
2023-02-15T16:22:59.347Z,32.67
2023-02-15T16:27:20.609Z,29.40
2023-02-15T16:31:23.926Z,31.67
2023-02-15T16:35:26.058Z,29.83
2023-02-15T16:39:28.087Z,32.50
2023-02-15T16:43:32.639Z,29.83
2023-02-15T16:47:41.270Z,34.13
2023-02-15T16:51:47.836Z,32.03
2023-02-15T16:55:56.910Z,33.00
2023-02-15T17:00:05.767Z,36.25
2023-02-15T17:04:21.415Z,41.03
2023-02-15T17:08:42.318Z,40.45
2023-02-15T17:12:45.948Z,39.78
2023-02-15T17:16:55.073Z,35.65
2023-02-15T17:21:01.727Z,37.30
2023-02-15T17:25:05.407Z,41.88
2023-02-15T17:29:22.354Z,38.40
2023-02-15T17:33:40.180Z,26.48
2023-02-15T17:37:49.969Z,37.90
2023-02-15T17:41:53.906Z,36.38
2023-02-15T17:45:58.437Z,37.88
2023-02-15T17:50:03.695Z,33.30
2023-02-15T17:54:24.452Z,30.90
2023-02-15T17:58:26.560Z,39.00
2023-02-15T18:02:53.409Z,34.35
2023-02-15T18:07:15.488Z,36.30
2023-02-15T18:11:36.014Z,37.60
2023-02-15T18:15:38.157Z,35.47
2023-02-15T18:19:42.429Z,32.75
2023-02-15T18:23:44.598Z,37.15
2023-02-15T18:27:47.075Z,31.77
2023-02-15T18:31:54.139Z,37.20
2023-02-15T18:39:58.186Z,38.95
2023-02-15T18:44:00.202Z,32.25
2023-02-15T18:48:02.245Z,39.22
2023-02-15T18:52:04.408Z,35.83
2023-02-15T18:56:06.555Z,37.33
2023-02-15T19:00:16.213Z,32.22
2023-02-15T19:04:18.708Z,32.15
2023-02-15T19:08:24.661Z,29.63
2023-02-15T19:12:28.328Z,31.05
2023-02-15T19:16:33.180Z,45.92
2023-02-15T19:20:41.310Z,35.60
2023-02-15T19:24:45.605Z,30.52
2023-02-15T19:28:48.256Z,32.20
2023-02-15T19:32:50.291Z,29.55
2023-02-15T19:36:54.361Z,32.97
2023-02-15T19:41:08.412Z,29.73
2023-02-15T19:45:17.783Z,33.28
2023-02-15T19:49:19.919Z,40.55
2023-02-15T19:53:27.406Z,43.30
2023-02-15T19:57:31.438Z,34.47
2023-02-15T20:01:33.527Z,34.88
2023-02-15T20:05:38.354Z,33.30
2023-02-15T20:09:41.320Z,31.58
2023-02-15T20:13:43.354Z,32.88
2023-02-15T20:17:45.344Z,33.90
2023-02-15T20:21:54.523Z,39.97
2023-02-15T20:26:02.568Z,40.67
2023-02-15T20:30:13.903Z,40.55
2023-02-15T20:34:16.087Z,35.10
2023-02-15T20:38:19.635Z,34.75
2023-02-15T20:42:21.751Z,38.03
2023-02-15T20:46:24.455Z,45.47
2023-02-15T20:50:30.212Z,43.28
2023-02-15T20:54:35.808Z,36.33
2023-02-15T20:58:38.513Z,38.97
2023-02-15T21:02:40.677Z,39.13
2023-02-15T21:06:42.726Z,37.53
2023-02-15T21:10:46.797Z,44.72
2023-02-15T21:14:48.877Z,33.88
2023-02-15T21:18:50.885Z,36.75
2023-02-15T21:22:53.486Z,50.97
2023-02-15T21:26:58.539Z,45.95
2023-02-15T21:31:00.780Z,37.33
2023-02-15T21:35:02.966Z,35.30
2023-02-15T21:39:05.446Z,46.25
2023-02-15T21:43:33.694Z,41.92
2023-02-15T21:47:50.655Z,40.45
2023-02-15T21:52:11.359Z,38.33
2023-02-15T21:56:19.035Z,32.15
2023-02-15T22:00:23.296Z,39.05
2023-02-15T22:04:26.958Z,47.78
2023-02-15T22:08:29.581Z,57.20
2023-02-15T22:12:31.724Z,26.85
2023-02-15T22:16:33.745Z,34.20
2023-02-15T22:20:35.842Z,27.15
2023-02-15T22:24:38.178Z,28.67
2023-02-15T22:28:42.256Z,32.60
2023-02-15T22:32:44.302Z,44.58
2023-02-15T22:36:46.355Z,31.73
2023-02-15T22:40:50.260Z,43.53
2023-02-15T22:44:56.858Z,35.30
2023-02-15T22:48:58.906Z,30.75
2023-02-15T22:53:01.834Z,50.72
2023-02-15T22:57:06.216Z,57.28
2023-02-15T23:01:25.705Z,38.28
2023-02-15T23:05:30.162Z,30.05
2023-02-15T23:09:32.627Z,35.28
2023-02-15T23:13:34.694Z,24.70
2023-02-15T23:17:36.771Z,36.67
2023-02-15T23:21:38.805Z,39.80
2023-02-15T23:25:41.570Z,45.63
2023-02-15T23:29:43.672Z,30.80
2023-02-15T23:33:46.393Z,30.98
2023-02-15T23:37:48.559Z,22.35
2023-02-15T23:41:51.189Z,38.20
2023-02-15T23:45:53.343Z,41.50
2023-02-15T23:49:55.378Z,41.25
2023-02-15T23:53:58.280Z,24.52
2023-02-15T23:58:00.421Z,22.42
